sensor_id;sensor_type;location;lat;lon;timestamp;temperature;humidity
8979;DHT22;4524;51.364;5.448;2022-12-11T00:00:30;3.10;99.90
8979;DHT22;4524;51.364;5.448;2022-12-11T00:02:58;3.00;99.90
8979;DHT22;4524;51.364;5.448;2022-12-11T00:05:26;3.00;99.90
8979;DHT22;4524;51.364;5.448;2022-12-11T00:07:54;3.00;99.90
8979;DHT22;4524;51.364;5.448;2022-12-11T00:10:23;3.10;99.90
8979;DHT22;4524;51.364;5.448;2022-12-11T00:12:51;3.00;99.90
8979;DHT22;4524;51.364;5.448;2022-12-11T00:15:19;3.10;99.90
8979;DHT22;4524;51.364;5.448;2022-12-11T00:17:48;3.10;99.90
8979;DHT22;4524;51.364;5.448;2022-12-11T00:20:16;3.10;99.90
8979;DHT22;4524;51.364;5.448;2022-12-11T00:22:44;3.10;99.90
8979;DHT22;4524;51.364;5.448;2022-12-11T00:25:12;3.10;99.90
8979;DHT22;4524;51.364;5.448;2022-12-11T00:27:40;3.10;99.90
8979;DHT22;4524;51.364;5.448;2022-12-11T00:30:09;3.10;99.90
8979;DHT22;4524;51.364;5.448;2022-12-11T00:32:37;3.10;99.90
8979;DHT22;4524;51.364;5.448;2022-12-11T00:35:07;3.10;99.90
8979;DHT22;4524;51.364;5.448;2022-12-11T00:37:36;3.10;99.90
8979;DHT22;4524;51.364;5.448;2022-12-11T00:40:05;3.20;99.90
8979;DHT22;4524;51.364;5.448;2022-12-11T00:42:34;3.20;99.90
8979;DHT22;4524;51.364;5.448;2022-12-11T00:45:02;3.20;99.90
8979;DHT22;4524;51.364;5.448;2022-12-11T00:47:30;3.10;99.90
8979;DHT22;4524;51.364;5.448;2022-12-11T00:49:58;3.10;99.90
8979;DHT22;4524;51.364;5.448;2022-12-11T00:52:27;3.00;99.90
8979;DHT22;4524;51.364;5.448;2022-12-11T00:54:55;3.00;99.90
8979;DHT22;4524;51.364;5.448;2022-12-11T00:57:23;3.00;99.90
8979;DHT22;4524;51.364;5.448;2022-12-11T00:59:51;3.10;99.90
8979;DHT22;4524;51.364;5.448;2022-12-11T01:02:19;3.10;99.90
8979;DHT22;4524;51.364;5.448;2022-12-11T01:04:47;3.00;99.90
8979;DHT22;4524;51.364;5.448;2022-12-11T01:07:15;3.00;99.90
8979;DHT22;4524;51.364;5.448;2022-12-11T01:09:46;3.00;99.90
8979;DHT22;4524;51.364;5.448;2022-12-11T01:12:32;3.00;99.90
8979;DHT22;4524;51.364;5.448;2022-12-11T01:15:00;3.00;99.90
8979;DHT22;4524;51.364;5.448;2022-12-11T01:17:28;3.00;99.90
8979;DHT22;4524;51.364;5.448;2022-12-11T01:19:56;3.10;99.90
8979;DHT22;4524;51.364;5.448;2022-12-11T01:22:24;3.10;99.90
8979;DHT22;4524;51.364;5.448;2022-12-11T01:24:53;3.10;99.90
8979;DHT22;4524;51.364;5.448;2022-12-11T01:27:21;3.00;99.90
8979;DHT22;4524;51.364;5.448;2022-12-11T01:29:49;3.00;99.90
8979;DHT22;4524;51.364;5.448;2022-12-11T01:32:17;3.00;99.90
8979;DHT22;4524;51.364;5.448;2022-12-11T01:34:45;3.00;99.90
8979;DHT22;4524;51.364;5.448;2022-12-11T01:37:14;3.10;99.90
8979;DHT22;4524;51.364;5.448;2022-12-11T01:39:41;3.10;99.90
8979;DHT22;4524;51.364;5.448;2022-12-11T01:42:16;3.10;99.90
8979;DHT22;4524;51.364;5.448;2022-12-11T01:45:35;3.10;99.90
8979;DHT22;4524;51.364;5.448;2022-12-11T01:48:08;3.20;99.90
8979;DHT22;4524;51.364;5.448;2022-12-11T01:50:41;3.20;99.90
8979;DHT22;4524;51.364;5.448;2022-12-11T01:53:14;3.20;99.90
8979;DHT22;4524;51.364;5.448;2022-12-11T01:55:44;3.20;99.90
8979;DHT22;4524;51.364;5.448;2022-12-11T01:58:15;3.20;99.90
8979;DHT22;4524;51.364;5.448;2022-12-11T02:00:43;3.20;99.90
8979;DHT22;4524;51.364;5.448;2022-12-11T02:03:11;3.20;99.90
8979;DHT22;4524;51.364;5.448;2022-12-11T02:05:39;3.20;99.90
8979;DHT22;4524;51.364;5.448;2022-12-11T02:08:08;3.20;99.90
8979;DHT22;4524;51.364;5.448;2022-12-11T02:10:46;3.20;99.90
8979;DHT22;4524;51.364;5.448;2022-12-11T02:13:22;3.30;99.90
8979;DHT22;4524;51.364;5.448;2022-12-11T02:15:59;3.30;99.90
8979;DHT22;4524;51.364;5.448;2022-12-11T02:18:38;3.30;99.90
8979;DHT22;4524;51.364;5.448;2022-12-11T02:21:13;3.30;99.90
8979;DHT22;4524;51.364;5.448;2022-12-11T02:23:59;3.30;99.90
8979;DHT22;4524;51.364;5.448;2022-12-11T02:26:45;3.30;99.90
8979;DHT22;4524;51.364;5.448;2022-12-11T02:29:18;3.40;99.90
8979;DHT22;4524;51.364;5.448;2022-12-11T02:31:50;3.40;99.90
8979;DHT22;4524;51.364;5.448;2022-12-11T02:34:24;3.40;99.90
8979;DHT22;4524;51.364;5.448;2022-12-11T02:36:59;3.40;99.90
8979;DHT22;4524;51.364;5.448;2022-12-11T02:39:30;3.40;99.90
8979;DHT22;4524;51.364;5.448;2022-12-11T02:42:00;3.40;99.90
8979;DHT22;4524;51.364;5.448;2022-12-11T02:44:33;3.40;99.90
8979;DHT22;4524;51.364;5.448;2022-12-11T02:47:03;3.50;99.90
8979;DHT22;4524;51.364;5.448;2022-12-11T02:49:33;3.40;99.90
8979;DHT22;4524;51.364;5.448;2022-12-11T02:52:04;3.40;99.90
8979;DHT22;4524;51.364;5.448;2022-12-11T02:54:35;3.40;99.90
8979;DHT22;4524;51.364;5.448;2022-12-11T02:57:07;3.40;99.90
8979;DHT22;4524;51.364;5.448;2022-12-11T02:59:40;3.40;99.90
8979;DHT22;4524;51.364;5.448;2022-12-11T03:02:10;3.40;99.90
8979;DHT22;4524;51.364;5.448;2022-12-11T03:04:39;3.40;99.90
8979;DHT22;4524;51.364;5.448;2022-12-11T03:07:11;3.40;99.90
8979;DHT22;4524;51.364;5.448;2022-12-11T03:09:41;3.40;99.90
8979;DHT22;4524;51.364;5.448;2022-12-11T03:12:12;3.40;99.90
8979;DHT22;4524;51.364;5.448;2022-12-11T03:14:42;3.40;99.90
8979;DHT22;4524;51.364;5.448;2022-12-11T03:17:14;3.40;99.90
8979;DHT22;4524;51.364;5.448;2022-12-11T03:19:49;3.50;99.90
8979;DHT22;4524;51.364;5.448;2022-12-11T03:22:21;3.50;99.90
8979;DHT22;4524;51.364;5.448;2022-12-11T03:24:59;3.40;99.90
8979;DHT22;4524;51.364;5.448;2022-12-11T03:27:33;3.40;99.90
8979;DHT22;4524;51.364;5.448;2022-12-11T03:30:07;3.40;99.90
8979;DHT22;4524;51.364;5.448;2022-12-11T03:32:39;3.40;99.90
8979;DHT22;4524;51.364;5.448;2022-12-11T03:35:13;3.40;99.90
8979;DHT22;4524;51.364;5.448;2022-12-11T03:37:43;3.40;99.90
8979;DHT22;4524;51.364;5.448;2022-12-11T03:40:15;3.40;99.90
8979;DHT22;4524;51.364;5.448;2022-12-11T03:42:47;3.30;99.90
8979;DHT22;4524;51.364;5.448;2022-12-11T03:45:18;3.30;99.90
8979;DHT22;4524;51.364;5.448;2022-12-11T03:47:47;3.30;99.90
8979;DHT22;4524;51.364;5.448;2022-12-11T03:50:18;3.30;99.90
8979;DHT22;4524;51.364;5.448;2022-12-11T03:52:47;3.30;99.90
8979;DHT22;4524;51.364;5.448;2022-12-11T03:55:17;3.30;99.90
8979;DHT22;4524;51.364;5.448;2022-12-11T03:57:46;3.30;99.90
8979;DHT22;4524;51.364;5.448;2022-12-11T04:00:18;3.20;99.90
8979;DHT22;4524;51.364;5.448;2022-12-11T04:02:46;3.20;99.90
8979;DHT22;4524;51.364;5.448;2022-12-11T04:05:39;3.30;99.90
8979;DHT22;4524;51.364;5.448;2022-12-11T04:08:08;3.30;99.90
8979;DHT22;4524;51.364;5.448;2022-12-11T04:10:36;3.30;99.90
8979;DHT22;4524;51.364;5.448;2022-12-11T04:13:04;3.30;99.90
8979;DHT22;4524;51.364;5.448;2022-12-11T04:15:34;3.30;99.90
8979;DHT22;4524;51.364;5.448;2022-12-11T04:18:01;3.30;99.90
8979;DHT22;4524;51.364;5.448;2022-12-11T04:20:47;3.30;99.90
8979;DHT22;4524;51.364;5.448;2022-12-11T04:23:47;3.30;99.90
8979;DHT22;4524;51.364;5.448;2022-12-11T04:26:33;3.30;99.90
8979;DHT22;4524;51.364;5.448;2022-12-11T04:29:01;3.30;99.90
8979;DHT22;4524;51.364;5.448;2022-12-11T04:31:30;3.30;99.90
8979;DHT22;4524;51.364;5.448;2022-12-11T04:33:58;3.30;99.90
8979;DHT22;4524;51.364;5.448;2022-12-11T04:36:26;3.30;99.90
8979;DHT22;4524;51.364;5.448;2022-12-11T04:38:54;3.30;99.90
8979;DHT22;4524;51.364;5.448;2022-12-11T04:41:22;3.30;99.90
8979;DHT22;4524;51.364;5.448;2022-12-11T04:43:50;3.30;99.90
8979;DHT22;4524;51.364;5.448;2022-12-11T04:46:19;3.30;99.90
8979;DHT22;4524;51.364;5.448;2022-12-11T04:48:50;3.30;99.90
8979;DHT22;4524;51.364;5.448;2022-12-11T04:51:24;3.30;99.90
8979;DHT22;4524;51.364;5.448;2022-12-11T04:53:52;3.30;99.90
8979;DHT22;4524;51.364;5.448;2022-12-11T04:56:20;3.40;99.90
8979;DHT22;4524;51.364;5.448;2022-12-11T04:58:48;3.40;99.90
8979;DHT22;4524;51.364;5.448;2022-12-11T05:01:18;3.30;99.90
8979;DHT22;4524;51.364;5.448;2022-12-11T05:03:48;3.30;99.90
8979;DHT22;4524;51.364;5.448;2022-12-11T05:06:16;3.30;99.90
8979;DHT22;4524;51.364;5.448;2022-12-11T05:08:44;3.40;99.90
8979;DHT22;4524;51.364;5.448;2022-12-11T05:11:13;3.30;99.90
8979;DHT22;4524;51.364;5.448;2022-12-11T05:13:42;3.30;99.90
8979;DHT22;4524;51.364;5.448;2022-12-11T05:16:13;3.30;99.90
8979;DHT22;4524;51.364;5.448;2022-12-11T05:18:41;3.30;99.90
8979;DHT22;4524;51.364;5.448;2022-12-11T05:21:12;3.30;99.90
8979;DHT22;4524;51.364;5.448;2022-12-11T05:23:41;3.40;99.90
8979;DHT22;4524;51.364;5.448;2022-12-11T05:26:12;3.40;99.90
8979;DHT22;4524;51.364;5.448;2022-12-11T05:28:41;3.40;99.90
8979;DHT22;4524;51.364;5.448;2022-12-11T05:31:12;3.40;99.90
8979;DHT22;4524;51.364;5.448;2022-12-11T05:33:40;3.40;99.90
8979;DHT22;4524;51.364;5.448;2022-12-11T05:36:10;3.30;99.90
8979;DHT22;4524;51.364;5.448;2022-12-11T05:38:40;3.30;99.90
8979;DHT22;4524;51.364;5.448;2022-12-11T05:41:09;3.30;99.90
8979;DHT22;4524;51.364;5.448;2022-12-11T05:43:39;3.40;99.90
8979;DHT22;4524;51.364;5.448;2022-12-11T05:46:10;3.30;99.90
8979;DHT22;4524;51.364;5.448;2022-12-11T05:48:39;3.30;99.90
8979;DHT22;4524;51.364;5.448;2022-12-11T05:51:08;3.30;99.90
8979;DHT22;4524;51.364;5.448;2022-12-11T05:53:39;3.30;99.90
8979;DHT22;4524;51.364;5.448;2022-12-11T05:56:09;3.30;99.90
8979;DHT22;4524;51.364;5.448;2022-12-11T05:58:38;3.40;99.90
8979;DHT22;4524;51.364;5.448;2022-12-11T06:01:07;3.40;99.90
8979;DHT22;4524;51.364;5.448;2022-12-11T06:03:35;3.40;99.90
8979;DHT22;4524;51.364;5.448;2022-12-11T06:06:05;3.40;99.90
8979;DHT22;4524;51.364;5.448;2022-12-11T06:08:33;3.40;99.90
8979;DHT22;4524;51.364;5.448;2022-12-11T06:11:03;3.40;99.90
8979;DHT22;4524;51.364;5.448;2022-12-11T06:13:31;3.40;99.90
8979;DHT22;4524;51.364;5.448;2022-12-11T06:16:00;3.40;99.90
8979;DHT22;4524;51.364;5.448;2022-12-11T06:18:29;3.40;99.90
8979;DHT22;4524;51.364;5.448;2022-12-11T06:20:58;3.30;99.90
8979;DHT22;4524;51.364;5.448;2022-12-11T06:23:25;3.30;99.90
8979;DHT22;4524;51.364;5.448;2022-12-11T06:25:53;3.30;99.90
8979;DHT22;4524;51.364;5.448;2022-12-11T06:28:23;3.30;99.90
8979;DHT22;4524;51.364;5.448;2022-12-11T06:30:51;3.30;99.90
8979;DHT22;4524;51.364;5.448;2022-12-11T06:33:19;3.30;99.90
8979;DHT22;4524;51.364;5.448;2022-12-11T06:35:47;3.40;99.90
8979;DHT22;4524;51.364;5.448;2022-12-11T06:38:14;3.30;99.90
8979;DHT22;4524;51.364;5.448;2022-12-11T06:40:43;3.30;99.90
8979;DHT22;4524;51.364;5.448;2022-12-11T06:43:11;3.30;99.90
8979;DHT22;4524;51.364;5.448;2022-12-11T06:45:40;3.30;99.90
8979;DHT22;4524;51.364;5.448;2022-12-11T06:48:08;3.30;99.90
8979;DHT22;4524;51.364;5.448;2022-12-11T06:50:37;3.30;99.90
8979;DHT22;4524;51.364;5.448;2022-12-11T06:53:05;3.30;99.90
8979;DHT22;4524;51.364;5.448;2022-12-11T06:55:34;3.30;99.90
8979;DHT22;4524;51.364;5.448;2022-12-11T06:58:02;3.20;99.90
8979;DHT22;4524;51.364;5.448;2022-12-11T07:00:30;3.30;99.90
8979;DHT22;4524;51.364;5.448;2022-12-11T07:02:59;3.30;99.90
8979;DHT22;4524;51.364;5.448;2022-12-11T07:05:27;3.30;99.90
8979;DHT22;4524;51.364;5.448;2022-12-11T07:07:55;3.20;99.90
8979;DHT22;4524;51.364;5.448;2022-12-11T07:10:24;3.20;99.90
8979;DHT22;4524;51.364;5.448;2022-12-11T07:12:52;3.20;99.90
8979;DHT22;4524;51.364;5.448;2022-12-11T07:15:20;3.20;99.90
8979;DHT22;4524;51.364;5.448;2022-12-11T07:17:48;3.20;99.90
8979;DHT22;4524;51.364;5.448;2022-12-11T07:20:18;3.20;99.90
8979;DHT22;4524;51.364;5.448;2022-12-11T07:22:46;3.20;99.90
8979;DHT22;4524;51.364;5.448;2022-12-11T07:25:14;3.20;99.90
8979;DHT22;4524;51.364;5.448;2022-12-11T07:27:42;3.20;99.90
8979;DHT22;4524;51.364;5.448;2022-12-11T07:30:10;3.20;99.90
8979;DHT22;4524;51.364;5.448;2022-12-11T07:32:39;3.20;99.90
8979;DHT22;4524;51.364;5.448;2022-12-11T07:35:07;3.10;99.90
8979;DHT22;4524;51.364;5.448;2022-12-11T07:37:40;3.20;99.90
8979;DHT22;4524;51.364;5.448;2022-12-11T07:40:09;3.20;99.90
8979;DHT22;4524;51.364;5.448;2022-12-11T07:42:37;3.20;99.90
8979;DHT22;4524;51.364;5.448;2022-12-11T07:45:12;3.20;99.90
8979;DHT22;4524;51.364;5.448;2022-12-11T07:47:40;3.20;99.90
8979;DHT22;4524;51.364;5.448;2022-12-11T07:50:08;3.20;99.90
8979;DHT22;4524;51.364;5.448;2022-12-11T07:52:36;3.20;99.90
8979;DHT22;4524;51.364;5.448;2022-12-11T07:55:06;3.30;99.90
8979;DHT22;4524;51.364;5.448;2022-12-11T07:57:35;3.30;99.90
8979;DHT22;4524;51.364;5.448;2022-12-11T08:00:04;3.30;99.90
8979;DHT22;4524;51.364;5.448;2022-12-11T08:02:38;3.30;99.90
8979;DHT22;4524;51.364;5.448;2022-12-11T08:05:07;3.30;99.90
8979;DHT22;4524;51.364;5.448;2022-12-11T08:07:35;3.30;99.90
8979;DHT22;4524;51.364;5.448;2022-12-11T08:10:05;3.30;99.90
8979;DHT22;4524;51.364;5.448;2022-12-11T08:12:34;3.30;99.90
8979;DHT22;4524;51.364;5.448;2022-12-11T08:15:02;3.20;99.90
8979;DHT22;4524;51.364;5.448;2022-12-11T08:17:30;3.20;99.90
8979;DHT22;4524;51.364;5.448;2022-12-11T08:20:06;3.30;99.90
8979;DHT22;4524;51.364;5.448;2022-12-11T08:22:35;3.30;99.90
8979;DHT22;4524;51.364;5.448;2022-12-11T08:25:03;3.30;99.90
8979;DHT22;4524;51.364;5.448;2022-12-11T08:27:33;3.30;99.90
8979;DHT22;4524;51.364;5.448;2022-12-11T08:30:01;3.30;99.90
8979;DHT22;4524;51.364;5.448;2022-12-11T08:32:29;3.40;99.90
8979;DHT22;4524;51.364;5.448;2022-12-11T08:34:56;3.40;99.90
8979;DHT22;4524;51.364;5.448;2022-12-11T08:37:25;3.30;99.90
8979;DHT22;4524;51.364;5.448;2022-12-11T08:39:52;3.30;99.90
8979;DHT22;4524;51.364;5.448;2022-12-11T08:42:20;3.30;99.90
8979;DHT22;4524;51.364;5.448;2022-12-11T08:44:50;3.30;99.90
8979;DHT22;4524;51.364;5.448;2022-12-11T08:47:19;3.40;99.90
8979;DHT22;4524;51.364;5.448;2022-12-11T08:49:47;3.40;99.90
8979;DHT22;4524;51.364;5.448;2022-12-11T08:52:15;3.30;99.90
8979;DHT22;4524;51.364;5.448;2022-12-11T08:54:42;3.30;99.90
8979;DHT22;4524;51.364;5.448;2022-12-11T08:57:10;3.20;99.90
8979;DHT22;4524;51.364;5.448;2022-12-11T08:59:39;3.30;99.90
8979;DHT22;4524;51.364;5.448;2022-12-11T09:02:10;3.30;99.90
8979;DHT22;4524;51.364;5.448;2022-12-11T09:04:39;3.30;99.90
8979;DHT22;4524;51.364;5.448;2022-12-11T09:07:07;3.20;99.90
8979;DHT22;4524;51.364;5.448;2022-12-11T09:09:35;3.30;99.90
8979;DHT22;4524;51.364;5.448;2022-12-11T09:12:03;3.20;99.90
8979;DHT22;4524;51.364;5.448;2022-12-11T09:14:31;3.30;99.90
8979;DHT22;4524;51.364;5.448;2022-12-11T09:16:59;3.40;99.90
8979;DHT22;4524;51.364;5.448;2022-12-11T09:19:29;3.40;99.90
8979;DHT22;4524;51.364;5.448;2022-12-11T09:21:58;3.40;99.90
8979;DHT22;4524;51.364;5.448;2022-12-11T09:24:27;3.40;99.90
8979;DHT22;4524;51.364;5.448;2022-12-11T09:26:55;3.40;99.90
8979;DHT22;4524;51.364;5.448;2022-12-11T09:29:23;3.40;99.90
8979;DHT22;4524;51.364;5.448;2022-12-11T09:31:51;3.40;99.90
8979;DHT22;4524;51.364;5.448;2022-12-11T09:34:20;3.50;99.90
8979;DHT22;4524;51.364;5.448;2022-12-11T09:36:57;3.50;99.90
8979;DHT22;4524;51.364;5.448;2022-12-11T09:39:25;3.50;99.90
8979;DHT22;4524;51.364;5.448;2022-12-11T09:41:58;3.50;99.90
8979;DHT22;4524;51.364;5.448;2022-12-11T09:44:33;3.40;99.90
8979;DHT22;4524;51.364;5.448;2022-12-11T09:47:18;3.50;99.90
8979;DHT22;4524;51.364;5.448;2022-12-11T09:49:49;3.50;99.90
8979;DHT22;4524;51.364;5.448;2022-12-11T09:52:22;3.50;99.90
8979;DHT22;4524;51.364;5.448;2022-12-11T09:54:57;3.50;99.90
8979;DHT22;4524;51.364;5.448;2022-12-11T09:57:37;3.50;99.90
8979;DHT22;4524;51.364;5.448;2022-12-11T10:00:23;3.60;99.90
8979;DHT22;4524;51.364;5.448;2022-12-11T10:03:18;3.60;99.90
8979;DHT22;4524;51.364;5.448;2022-12-11T10:05:52;3.60;99.90
8979;DHT22;4524;51.364;5.448;2022-12-11T10:08:35;3.60;99.90
8979;DHT22;4524;51.364;5.448;2022-12-11T10:11:20;3.60;99.90
8979;DHT22;4524;51.364;5.448;2022-12-11T10:13:56;3.70;99.90
8979;DHT22;4524;51.364;5.448;2022-12-11T10:16:32;3.60;99.90
8979;DHT22;4524;51.364;5.448;2022-12-11T10:19:02;3.50;99.90
8979;DHT22;4524;51.364;5.448;2022-12-11T10:21:37;3.60;99.90
8979;DHT22;4524;51.364;5.448;2022-12-11T10:24:14;3.60;99.90
8979;DHT22;4524;51.364;5.448;2022-12-11T10:27:14;3.50;99.90
8979;DHT22;4524;51.364;5.448;2022-12-11T10:29:45;3.50;99.90
8979;DHT22;4524;51.364;5.448;2022-12-11T10:32:21;3.50;99.90
8979;DHT22;4524;51.364;5.448;2022-12-11T10:34:54;3.60;99.90
8979;DHT22;4524;51.364;5.448;2022-12-11T10:37:24;3.70;99.90
8979;DHT22;4524;51.364;5.448;2022-12-11T10:39:53;3.70;99.90
8979;DHT22;4524;51.364;5.448;2022-12-11T10:42:22;3.70;99.90
8979;DHT22;4524;51.364;5.448;2022-12-11T10:44:57;3.70;99.90
8979;DHT22;4524;51.364;5.448;2022-12-11T10:47:26;3.70;99.90
8979;DHT22;4524;51.364;5.448;2022-12-11T10:49:56;3.70;99.90
8979;DHT22;4524;51.364;5.448;2022-12-11T10:52:26;3.80;99.90
8979;DHT22;4524;51.364;5.448;2022-12-11T10:54:58;3.70;99.90
8979;DHT22;4524;51.364;5.448;2022-12-11T10:57:28;3.70;99.90
8979;DHT22;4524;51.364;5.448;2022-12-11T10:59:57;3.70;99.90
8979;DHT22;4524;51.364;5.448;2022-12-11T11:02:28;3.70;99.90
8979;DHT22;4524;51.364;5.448;2022-12-11T11:04:58;3.80;99.90
8979;DHT22;4524;51.364;5.448;2022-12-11T11:07:28;3.70;99.90
8979;DHT22;4524;51.364;5.448;2022-12-11T11:10:14;3.80;99.90
8979;DHT22;4524;51.364;5.448;2022-12-11T11:12:44;3.90;99.90
8979;DHT22;4524;51.364;5.448;2022-12-11T11:15:14;3.90;99.90
8979;DHT22;4524;51.364;5.448;2022-12-11T11:17:45;3.90;99.90
8979;DHT22;4524;51.364;5.448;2022-12-11T11:20:22;4.00;99.90
8979;DHT22;4524;51.364;5.448;2022-12-11T11:22:54;4.00;99.90
8979;DHT22;4524;51.364;5.448;2022-12-11T11:25:25;4.10;99.90
8979;DHT22;4524;51.364;5.448;2022-12-11T11:27:55;4.10;99.90
8979;DHT22;4524;51.364;5.448;2022-12-11T11:30:25;4.20;99.90
8979;DHT22;4524;51.364;5.448;2022-12-11T11:32:54;4.20;99.90
8979;DHT22;4524;51.364;5.448;2022-12-11T11:35:24;4.30;99.90
8979;DHT22;4524;51.364;5.448;2022-12-11T11:38:04;4.10;99.90
8979;DHT22;4524;51.364;5.448;2022-12-11T11:40:44;4.20;99.90
8979;DHT22;4524;51.364;5.448;2022-12-11T11:43:20;4.20;99.90
8979;DHT22;4524;51.364;5.448;2022-12-11T11:45:57;4.30;99.90
8979;DHT22;4524;51.364;5.448;2022-12-11T11:48:34;4.30;99.90
8979;DHT22;4524;51.364;5.448;2022-12-11T11:51:11;4.30;99.90
8979;DHT22;4524;51.364;5.448;2022-12-11T11:53:40;4.30;99.90
8979;DHT22;4524;51.364;5.448;2022-12-11T11:56:18;4.30;99.90
8979;DHT22;4524;51.364;5.448;2022-12-11T11:58:57;4.30;99.90
8979;DHT22;4524;51.364;5.448;2022-12-11T12:01:27;4.30;99.90
8979;DHT22;4524;51.364;5.448;2022-12-11T12:03:55;4.50;99.90
8979;DHT22;4524;51.364;5.448;2022-12-11T12:06:33;4.40;99.90
8979;DHT22;4524;51.364;5.448;2022-12-11T12:09:16;4.50;99.90
8979;DHT22;4524;51.364;5.448;2022-12-11T12:11:52;4.40;99.90
8979;DHT22;4524;51.364;5.448;2022-12-11T12:14:29;4.50;99.90
8979;DHT22;4524;51.364;5.448;2022-12-11T12:17:28;4.60;99.90
8979;DHT22;4524;51.364;5.448;2022-12-11T12:20:03;4.50;99.90
8979;DHT22;4524;51.364;5.448;2022-12-11T12:22:55;4.60;99.90
8979;DHT22;4524;51.364;5.448;2022-12-11T12:25:28;4.50;99.90
8979;DHT22;4524;51.364;5.448;2022-12-11T12:28:09;4.50;99.90
8979;DHT22;4524;51.364;5.448;2022-12-11T12:30:50;4.50;99.90
8979;DHT22;4524;51.364;5.448;2022-12-11T12:33:30;4.40;99.90
8979;DHT22;4524;51.364;5.448;2022-12-11T12:36:07;4.30;99.90
8979;DHT22;4524;51.364;5.448;2022-12-11T12:38:43;4.20;99.90
8979;DHT22;4524;51.364;5.448;2022-12-11T12:41:19;4.20;99.90
8979;DHT22;4524;51.364;5.448;2022-12-11T12:43:59;4.20;99.90
8979;DHT22;4524;51.364;5.448;2022-12-11T12:46:48;4.10;99.90
8979;DHT22;4524;51.364;5.448;2022-12-11T12:49:29;4.10;99.90
8979;DHT22;4524;51.364;5.448;2022-12-11T12:51:59;4.20;99.90
8979;DHT22;4524;51.364;5.448;2022-12-11T12:54:29;4.30;99.90
8979;DHT22;4524;51.364;5.448;2022-12-11T12:57:01;4.20;99.90
8979;DHT22;4524;51.364;5.448;2022-12-11T12:59:32;4.20;99.90
8979;DHT22;4524;51.364;5.448;2022-12-11T13:02:01;4.10;99.90
8979;DHT22;4524;51.364;5.448;2022-12-11T13:04:37;4.20;99.90
8979;DHT22;4524;51.364;5.448;2022-12-11T13:07:25;4.10;99.90
8979;DHT22;4524;51.364;5.448;2022-12-11T13:09:57;4.10;99.90
8979;DHT22;4524;51.364;5.448;2022-12-11T13:12:32;4.10;99.90
8979;DHT22;4524;51.364;5.448;2022-12-11T13:15:02;4.10;99.90
8979;DHT22;4524;51.364;5.448;2022-12-11T13:17:35;4.00;99.90
8979;DHT22;4524;51.364;5.448;2022-12-11T13:20:14;4.00;99.90
8979;DHT22;4524;51.364;5.448;2022-12-11T13:22:53;3.90;99.90
8979;DHT22;4524;51.364;5.448;2022-12-11T13:25:27;3.90;99.90
8979;DHT22;4524;51.364;5.448;2022-12-11T13:28:04;3.80;99.90
8979;DHT22;4524;51.364;5.448;2022-12-11T13:30:34;3.80;99.90
8979;DHT22;4524;51.364;5.448;2022-12-11T13:33:04;3.70;99.90
8979;DHT22;4524;51.364;5.448;2022-12-11T13:35:33;3.80;99.90
8979;DHT22;4524;51.364;5.448;2022-12-11T13:38:06;3.80;99.90
8979;DHT22;4524;51.364;5.448;2022-12-11T13:40:39;3.80;99.90
8979;DHT22;4524;51.364;5.448;2022-12-11T13:43:16;3.80;99.90
8979;DHT22;4524;51.364;5.448;2022-12-11T13:45:49;3.70;99.90
8979;DHT22;4524;51.364;5.448;2022-12-11T13:48:21;3.70;99.90
8979;DHT22;4524;51.364;5.448;2022-12-11T13:50:51;3.80;99.90
8979;DHT22;4524;51.364;5.448;2022-12-11T13:53:21;3.80;99.90
8979;DHT22;4524;51.364;5.448;2022-12-11T13:55:56;3.70;99.90
8979;DHT22;4524;51.364;5.448;2022-12-11T13:58:25;3.70;99.90
8979;DHT22;4524;51.364;5.448;2022-12-11T14:01:03;3.60;99.90
8979;DHT22;4524;51.364;5.448;2022-12-11T14:03:33;3.70;99.90
8979;DHT22;4524;51.364;5.448;2022-12-11T14:06:02;3.70;99.90
8979;DHT22;4524;51.364;5.448;2022-12-11T14:08:33;3.80;99.90
8979;DHT22;4524;51.364;5.448;2022-12-11T14:11:02;3.80;99.90
8979;DHT22;4524;51.364;5.448;2022-12-11T14:13:34;3.70;99.90
8979;DHT22;4524;51.364;5.448;2022-12-11T14:16:05;3.70;99.90
8979;DHT22;4524;51.364;5.448;2022-12-11T14:18:34;3.70;99.90
8979;DHT22;4524;51.364;5.448;2022-12-11T14:21:05;3.70;99.90
8979;DHT22;4524;51.364;5.448;2022-12-11T14:23:34;3.60;99.90
8979;DHT22;4524;51.364;5.448;2022-12-11T14:26:15;3.50;99.90
8979;DHT22;4524;51.364;5.448;2022-12-11T14:28:43;3.60;99.90
8979;DHT22;4524;51.364;5.448;2022-12-11T14:31:15;3.50;99.90
8979;DHT22;4524;51.364;5.448;2022-12-11T14:33:48;3.60;99.90
8979;DHT22;4524;51.364;5.448;2022-12-11T14:36:18;3.60;99.90
8979;DHT22;4524;51.364;5.448;2022-12-11T14:38:50;3.60;99.90
8979;DHT22;4524;51.364;5.448;2022-12-11T14:41:24;3.60;99.90
8979;DHT22;4524;51.364;5.448;2022-12-11T14:43:55;3.60;99.90
8979;DHT22;4524;51.364;5.448;2022-12-11T14:46:37;3.60;99.90
8979;DHT22;4524;51.364;5.448;2022-12-11T14:49:15;3.60;99.90
8979;DHT22;4524;51.364;5.448;2022-12-11T14:51:44;3.60;99.90
8979;DHT22;4524;51.364;5.448;2022-12-11T14:54:18;3.60;99.90
8979;DHT22;4524;51.364;5.448;2022-12-11T14:56:48;3.60;99.90
8979;DHT22;4524;51.364;5.448;2022-12-11T14:59:19;3.60;99.90
8979;DHT22;4524;51.364;5.448;2022-12-11T15:02:00;3.50;99.90
8979;DHT22;4524;51.364;5.448;2022-12-11T15:04:30;3.50;99.90
8979;DHT22;4524;51.364;5.448;2022-12-11T15:06:58;3.50;99.90
8979;DHT22;4524;51.364;5.448;2022-12-11T15:09:28;3.40;99.90
8979;DHT22;4524;51.364;5.448;2022-12-11T15:11:58;3.40;99.90
8979;DHT22;4524;51.364;5.448;2022-12-11T15:14:34;3.40;99.90
8979;DHT22;4524;51.364;5.448;2022-12-11T15:17:11;3.40;99.90
8979;DHT22;4524;51.364;5.448;2022-12-11T15:19:45;3.40;99.90
8979;DHT22;4524;51.364;5.448;2022-12-11T15:22:15;3.40;99.90
8979;DHT22;4524;51.364;5.448;2022-12-11T15:24:44;3.50;99.90
8979;DHT22;4524;51.364;5.448;2022-12-11T15:27:22;3.50;99.90
8979;DHT22;4524;51.364;5.448;2022-12-11T15:29:51;3.50;99.90
8979;DHT22;4524;51.364;5.448;2022-12-11T15:32:21;3.50;99.90
8979;DHT22;4524;51.364;5.448;2022-12-11T15:34:50;3.40;99.90
8979;DHT22;4524;51.364;5.448;2022-12-11T15:37:20;3.40;99.90
8979;DHT22;4524;51.364;5.448;2022-12-11T15:39:49;3.40;99.90
8979;DHT22;4524;51.364;5.448;2022-12-11T15:42:23;3.50;99.90
8979;DHT22;4524;51.364;5.448;2022-12-11T15:44:52;3.50;99.90
8979;DHT22;4524;51.364;5.448;2022-12-11T15:47:24;3.50;99.90
8979;DHT22;4524;51.364;5.448;2022-12-11T15:49:54;3.60;99.90
8979;DHT22;4524;51.364;5.448;2022-12-11T15:52:23;3.50;99.90
8979;DHT22;4524;51.364;5.448;2022-12-11T15:54:51;3.60;99.90
8979;DHT22;4524;51.364;5.448;2022-12-11T15:57:21;3.50;99.90
8979;DHT22;4524;51.364;5.448;2022-12-11T15:59:52;3.50;99.90
8979;DHT22;4524;51.364;5.448;2022-12-11T16:02:22;3.40;99.90
8979;DHT22;4524;51.364;5.448;2022-12-11T16:04:55;3.50;99.90
8979;DHT22;4524;51.364;5.448;2022-12-11T16:07:24;3.50;99.90
8979;DHT22;4524;51.364;5.448;2022-12-11T16:09:52;3.50;99.90
8979;DHT22;4524;51.364;5.448;2022-12-11T16:12:20;3.50;99.90
8979;DHT22;4524;51.364;5.448;2022-12-11T16:14:48;3.40;99.90
8979;DHT22;4524;51.364;5.448;2022-12-11T16:17:16;3.40;99.90
8979;DHT22;4524;51.364;5.448;2022-12-11T16:19:46;3.40;99.90
8979;DHT22;4524;51.364;5.448;2022-12-11T16:22:14;3.40;99.90
8979;DHT22;4524;51.364;5.448;2022-12-11T16:24:42;3.40;99.90
8979;DHT22;4524;51.364;5.448;2022-12-11T16:27:10;3.40;99.90
8979;DHT22;4524;51.364;5.448;2022-12-11T16:29:39;3.40;99.90
8979;DHT22;4524;51.364;5.448;2022-12-11T16:32:08;3.40;99.90
8979;DHT22;4524;51.364;5.448;2022-12-11T16:34:36;3.40;99.90
8979;DHT22;4524;51.364;5.448;2022-12-11T16:37:07;3.30;99.90
8979;DHT22;4524;51.364;5.448;2022-12-11T16:39:36;3.30;99.90
8979;DHT22;4524;51.364;5.448;2022-12-11T16:42:05;3.20;99.90
8979;DHT22;4524;51.364;5.448;2022-12-11T16:44:33;3.20;99.90